Nearby METAR Reports

 

KHIF - Hill Afb/Ogden, Utah, USA
Distance from station: ENE 6mi, 9km
Updated: Mon, 15-Oct-2018 1:58am MDT
Clear
Clear
 Wind from NE
Wind: NE 6 mph , 9 km/h
Temperature: 32°F , 0°C
Wind Chill: 26°F , -3°C
Dew Point: 14°F , -10°C
Humidity: 47%
Barometer: 30.38 inHg , 1028.8 hPa
Clouds: Clear
Visibility: 10 miles , 16 km
2018/10/15 07:58 KHIF 150758Z AUTO 04005KT 10SM CLR 00/M10 A3038 RMK AO2 SLP291 T10021102
KOGD - Ogden, Utah, USA
Distance from station: NNE 9mi, 14km
Updated: Mon, 15-Oct-2018 1:53am MDT
Clear
Clear
 Wind from calm
Wind: Calm
Temperature: 32°F , 0°C
Dew Point: 18°F , -8°C
Humidity: 55%
Barometer: 30.38 inHg , 1028.8 hPa
Clouds: Clear
Visibility: 10 miles , 16 km
2018/10/15 07:53 KOGD 150753Z AUTO 00000KT 10SM CLR 00/M08 A3038 RMK AO2 SLP287 T00001083
 
KSLC - Salt Lake City, Utah, USA
Distance from station: SSE 21mi, 34km
Updated: Mon, 15-Oct-2018 1:54am MDT
Clear
Clear
 Wind from calm
Wind: Calm
Temperature: 34°F , 1°C
Dew Point: 25°F , -4°C
Humidity: 70%
Barometer: 30.39 inHg , 1029.1 hPa
Clouds: Clear
Visibility: 10 miles , 16 km
2018/10/15 07:54 KSLC 150754Z 00000KT 10SM CLR 01/M04 A3039 RMK AO2 SLP292 T00111039
KLGU - Logan, Utah, USA
Distance from station: NNE 50mi, 80km
Updated: Mon, 15-Oct-2018 1:51am MDT
Clear
Clear
 Wind from calm
Wind: Calm
Temperature: 25°F , -4°C
Dew Point: 18°F , -8°C
Humidity: 74%
Barometer: 30.40 inHg , 1029.5 hPa
Clouds: Clear
Visibility: 10 miles , 16 km
2018/10/15 07:51 KLGU 150751Z AUTO 00000KT 10SM CLR M04/M08 A3040 RMK AO2 SLP310 T10391083 $
 
K36U - Heber/Russ Mcdon, Utah, USA
Distance from station: SE 53mi, 85km
Updated: Wed, 11-Oct-2017 6:50pm MDT
NOT Current
Clear
Clear
 Wind from SSW
Wind: SSW 10 mph , 17 km/h, Gust: 18 mph , 30 km/h
Temperature: 63°F , 17°C
Dew Point: 16°F , -9°C
Humidity: 16%
Barometer: 29.87 inHg , 1011.5 hPa
Clouds: Clear
Visibility: 10 miles , 16 km
2017/10/12 00:50 K36U 120050Z AUTO 21009G16KT 10SM CLR 17/M09 A2987 RMK AO2
KEVW - Evanston, Wyoming, USA
Distance from station: ENE 55mi, 89km
Updated: Mon, 15-Oct-2018 1:53am MDT
Clear
Clear
 Wind from SW
Wind: SW 5 mph , 7 km/h
Temperature: 21°F , -6°C
Wind Chill: 14°F , -10°C
Dew Point: 14°F , -10°C
Humidity: 74%
Barometer: 30.34 inHg , 1027.4 hPa
Clouds: Clear
Visibility: 10 miles , 16 km
2018/10/15 07:53 KEVW 150753Z AUTO 22004KT 10SM CLR M06/M10 A3034 RMK AO2 SLP298 T10611100
 
KPVU - Provo Muni, Utah, USA
Distance from station: SSE 62mi, 100km
Updated: Mon, 15-Oct-2018 1:56am MDT
Clear
Clear
 Wind from SE
Wind: SE 6 mph , 9 km/h
Temperature: 30°F , -1°C
Wind Chill: 24°F , -4°C
Dew Point: 23°F , -5°C
Humidity: 75%
Barometer: 30.39 inHg , 1029.1 hPa
Clouds: Clear
Visibility: 10 miles , 16 km
2018/10/15 07:56 KPVU 150756Z AUTO 13005KT 10SM CLR M01/M05 A3039 RMK AO2 SLP302 T10061050 FZRANO
KDPG - Dugway Prvg Grou, Utah, USA
Distance from station: SW 75mi, 121km
Updated: Mon, 15-Oct-2018 2:00am MDT
Clear
Clear
 Wind from SE
Wind: SE 5 mph , 7 km/h
Temperature: 25°F , -4°C
Wind Chill: 19°F , -7°C
Dew Point: 16°F , -9°C
Humidity: 69%
Barometer: 30.40 inHg , 1029.5 hPa
Clouds: Clear
Visibility: 45 miles , 72 km
2018/10/15 08:00 KDPG 150800Z 13004KT 45SM CLR M04/M09 A3040 RMK SLP299 T10401086
 
KENV - Wendover (aut), Utah, USA
Distance from station: WSW 105mi, 169km
Updated: Mon, 15-Oct-2018 1:56am MDT
Clear
Clear
 Wind from calm
Wind: Calm
Temperature: 36°F , 2°C
Dew Point: 16°F , -9°C
Humidity: 44%
Barometer: 30.42 inHg , 1030.1 hPa
Clouds: Clear
Visibility: 10 miles , 16 km
2018/10/15 07:56 KENV 150756Z AUTO 00000KT 10SM CLR 02/M09 A3042 RMK AO2 SLP316 T00171094 FZRANO
KPUC - Price, Utah, USA
Distance from station: SE 123mi, 197km
Updated: Mon, 15-Oct-2018 1:53am MDT
Clear
Clear
 Wind from NE
Wind: NE 8 mph , 13 km/h
Temperature: 28°F , -2°C
Wind Chill: 20°F , -7°C
Dew Point: 21°F , -6°C
Humidity: 74%
Barometer: 30.32 inHg , 1026.8 hPa
Clouds: Clear
Visibility: 10 miles , 16 km
2018/10/15 07:53 KPUC 150753Z AUTO 04007KT 10SM CLR M02/M06 A3032 RMK AO2 SLP294 T10221061
 
KPIH - Pocatello, Idaho, USA
Distance from station: NNW 130mi, 208km
Updated: Mon, 15-Oct-2018 1:53am MDT
Light snow, Clear
Light snow, Clear
 Wind from SSW
Wind: SSW 9 mph , 15 km/h
Temperature: 28°F , -2°C
Wind Chill: 19°F , -7°C
Dew Point: 19°F , -7°C
Humidity: 69%
Barometer: 30.40 inHg , 1029.5 hPa
Summary: Light Snow
Clouds: Clear
Visibility: 9 miles , 14 km
2018/10/15 07:53 KPIH 150753Z AUTO 20008KT 9SM -SN CLR M02/M07 A3040 RMK AO2 SNB20 SLP312 P0000 T10221072
KBYI - Burley, Idaho, USA
Distance from station: NW 134mi, 216km
Updated: Mon, 15-Oct-2018 1:53am MDT
Clear
Clear
 Wind from SW
Wind: SW 12 mph , 19 km/h
Temperature: 30°F , -1°C
Wind Chill: 20°F , -7°C
Dew Point: 19°F , -7°C
Humidity: 64%
Barometer: 30.40 inHg , 1029.5 hPa
Clouds: Clear
Visibility: 10 miles , 16 km
2018/10/15 07:53 KBYI 150753Z AUTO 22010KT 10SM CLR M01/M07 A3040 RMK AO2 SLP303 T10061067
 
KVEL - Vernal, Utah, USA
Distance from station: ESE 140mi, 226km
Updated: Mon, 15-Oct-2018 1:53am MDT
Clear
Clear
 Wind from calm
Wind: Calm
Temperature: 25°F , -4°C
Dew Point: 18°F , -8°C
Humidity: 74%
Barometer: 30.36 inHg , 1028.1 hPa
Clouds: Clear
Visibility: 10 miles , 16 km
2018/10/15 07:53 KVEL 150753Z AUTO 00000KT 10SM CLR M04/M08 A3036 RMK AO2 SLP300 T10391083
KBPI - Big Piney, Wyoming, USA
Distance from station: NE 145mi, 234km
Updated: Mon, 15-Oct-2018 1:53am MDT
Clear
Clear
 Wind from N
Wind: N 12 mph , 19 km/h
Temperature: 18°F , -8°C
Wind Chill: 5°F , -15°C
Dew Point: 5°F , -15°C
Humidity: 58%
Barometer: 30.29 inHg , 1025.7 hPa
Clouds: Clear
Visibility: 10 miles , 16 km
2018/10/15 07:53 KBPI 150753Z AUTO 36010KT 10SM CLR M08/M15 A3029 RMK AO2 SLP280 T10831150